LGX01L LIRI-LSZC
Flight info
| Callsign | LGX01L |
|---|---|
| Flight time | 1h 21m |
| Altitude | 36000 |
| Route | SOR DCT ALAXI DCT ADOSA DCT RESIA Z50 KELIP DCT ASGED |
| Aircraft | CL60/M-SADE3FGHIJ3J4J7P2RWXY/HB1D1 |
Departure
| Time | 2026-04-29 07:13 |
|---|---|
| Airport | Salerno Costa d'Amalfi Airport (LIRI) |
Arrival
| Time | 2026-04-29 08:35 |
|---|---|
| Airport | Buochs Airport (LSZC) |
| Time | Latitude | Longitude | Altitude | Speed | Heading |
|---|---|---|---|---|---|
| 2026-04-29 06:56 | 40.62103 | 14.91907 | 130 ft | 0 kts | 322° |
| 2026-04-29 07:09 | 40.62110 | 14.91929 | 131 ft | 7 kts | 119° |
| 2026-04-29 07:09 | 40.62101 | 14.91956 | 131 ft | 3 kts | 98° |
| 2026-04-29 07:09 | 40.62137 | 14.92036 | 133 ft | 10 kts | 52° |
| 2026-04-29 07:10 | 40.62206 | 14.92096 | 134 ft | 14 kts | 336° |
| 2026-04-29 07:10 | 40.62230 | 14.92001 | 135 ft | 12 kts | 232° |
| 2026-04-29 07:10 | 40.62216 | 14.91906 | 133 ft | 10 kts | 321° |
| 2026-04-29 07:10 | 40.62225 | 14.91898 | 133 ft | 0 kts | 322° |
| 2026-04-29 07:11 | 40.62225 | 14.91897 | 133 ft | 0 kts | 322° |
| 2026-04-29 07:12 | 40.62252 | 14.91870 | 133 ft | 11 kts | 323° |
| 2026-04-29 07:12 | 40.62306 | 14.91789 | 132 ft | 10 kts | 259° |
| 2026-04-29 07:12 | 40.62229 | 14.91653 | 128 ft | 44 kts | 232° |
| 2026-04-29 07:12 | 40.61819 | 14.90954 | 103 ft | 145 kts | 232° |
| 2026-04-29 07:13 | 40.61112 | 14.89772 | 672 ft | 179 kts | 231° |
| 2026-04-29 07:13 | 40.60307 | 14.88422 | 1608 ft | 199 kts | 232° |
| 2026-04-29 07:13 | 40.59467 | 14.86988 | 2788 ft | 210 kts | 232° |
| 2026-04-29 07:13 | 40.58571 | 14.85545 | 4212 ft | 214 kts | 231° |
| 2026-04-29 07:14 | 40.57549 | 14.83936 | 4980 ft | 250 kts | 231° |
| 2026-04-29 07:14 | 40.56408 | 14.82142 | 6167 ft | 266 kts | 231° |
| 2026-04-29 07:14 | 40.55225 | 14.80284 | 7553 ft | 273 kts | 232° |
| 2026-04-29 07:14 | 40.54016 | 14.78372 | 8917 ft | 279 kts | 234° |
| 2026-04-29 07:15 | 40.53152 | 14.76197 | 10252 ft | 279 kts | 257° |
| 2026-04-29 07:15 | 40.53027 | 14.73575 | 10964 ft | 306 kts | 278° |
| 2026-04-29 07:15 | 40.53404 | 14.70691 | 11559 ft | 334 kts | 281° |
| 2026-04-29 07:15 | 40.53813 | 14.67652 | 12551 ft | 347 kts | 280° |
| 2026-04-29 07:16 | 40.54230 | 14.64506 | 13597 ft | 356 kts | 280° |
| 2026-04-29 07:16 | 40.54650 | 14.61316 | 14660 ft | 361 kts | 280° |
| 2026-04-29 07:16 | 40.55076 | 14.58066 | 15702 ft | 367 kts | 279° |
| 2026-04-29 07:16 | 40.55505 | 14.54766 | 16665 ft | 373 kts | 279° |
| 2026-04-29 07:17 | 40.55940 | 14.51414 | 17602 ft | 379 kts | 279° |
| 2026-04-29 07:17 | 40.56383 | 14.47980 | 18519 ft | 384 kts | 279° |
| 2026-04-29 07:17 | 40.56828 | 14.44514 | 19404 ft | 389 kts | 279° |
| 2026-04-29 07:17 | 40.57275 | 14.41025 | 20264 ft | 394 kts | 279° |
| 2026-04-29 07:18 | 40.57834 | 14.37500 | 21092 ft | 398 kts | 287° |
| 2026-04-29 07:18 | 40.59014 | 14.34201 | 21884 ft | 403 kts | 302° |
| 2026-04-29 07:18 | 40.60867 | 14.31447 | 22666 ft | 409 kts | 319° |
| 2026-04-29 07:18 | 40.63204 | 14.29310 | 23384 ft | 414 kts | 326° |
| 2026-04-29 07:19 | 40.65653 | 14.27266 | 24110 ft | 418 kts | 326° |
| 2026-04-29 07:19 | 40.68084 | 14.25224 | 24807 ft | 422 kts | 326° |
| 2026-04-29 07:19 | 40.70599 | 14.23109 | 25476 ft | 427 kts | 326° |
| 2026-04-29 07:19 | 40.73103 | 14.21001 | 26133 ft | 430 kts | 326° |
| 2026-04-29 07:20 | 40.75624 | 14.18876 | 26727 ft | 434 kts | 326° |
| 2026-04-29 07:20 | 40.78170 | 14.16729 | 27287 ft | 438 kts | 326° |
| 2026-04-29 07:20 | 40.80761 | 14.14540 | 27835 ft | 442 kts | 326° |
| 2026-04-29 07:20 | 40.83371 | 14.12334 | 28362 ft | 445 kts | 326° |
| 2026-04-29 07:21 | 40.85990 | 14.10117 | 28872 ft | 448 kts | 326° |
| 2026-04-29 07:21 | 40.88620 | 14.07889 | 29340 ft | 451 kts | 326° |
| 2026-04-29 07:21 | 40.91298 | 14.05618 | 29825 ft | 453 kts | 326° |
| 2026-04-29 07:21 | 40.93918 | 14.03394 | 30412 ft | 452 kts | 326° |
| 2026-04-29 07:22 | 40.96576 | 14.01135 | 31036 ft | 449 kts | 326° |
| 2026-04-29 07:22 | 40.99186 | 13.98916 | 31652 ft | 446 kts | 326° |
| 2026-04-29 07:22 | 41.01776 | 13.96710 | 32261 ft | 443 kts | 326° |
| 2026-04-29 07:22 | 41.04321 | 13.94542 | 32811 ft | 441 kts | 326° |
| 2026-04-29 07:23 | 41.06918 | 13.92326 | 33337 ft | 439 kts | 326° |
| 2026-04-29 07:23 | 41.09474 | 13.90143 | 33806 ft | 438 kts | 326° |
| 2026-04-29 07:23 | 41.12014 | 13.87971 | 34252 ft | 437 kts | 326° |
| 2026-04-29 07:23 | 41.14546 | 13.85805 | 34699 ft | 436 kts | 326° |
| 2026-04-29 07:24 | 41.17082 | 13.83632 | 35147 ft | 435 kts | 326° |
| 2026-04-29 07:24 | 41.19603 | 13.81471 | 35597 ft | 433 kts | 326° |
| 2026-04-29 07:24 | 41.22149 | 13.79287 | 35987 ft | 433 kts | 326° |
| 2026-04-29 07:25 | 41.27261 | 13.74891 | 36048 ft | 447 kts | 326° |
| 2026-04-29 07:25 | 41.32525 | 13.70358 | 36053 ft | 455 kts | 326° |
| 2026-04-29 07:26 | 41.37858 | 13.65757 | 36056 ft | 457 kts | 326° |
| 2026-04-29 07:26 | 41.43155 | 13.61178 | 36062 ft | 456 kts | 326° |
| 2026-04-29 07:27 | 41.48466 | 13.56578 | 36070 ft | 455 kts | 326° |
| 2026-04-29 07:27 | 41.53749 | 13.51993 | 36074 ft | 454 kts | 326° |
| 2026-04-29 07:28 | 41.59043 | 13.47388 | 36069 ft | 454 kts | 326° |
| 2026-04-29 07:28 | 41.64318 | 13.42792 | 36061 ft | 454 kts | 326° |
| 2026-04-29 07:29 | 41.69564 | 13.38212 | 35816 ft | 454 kts | 326° |
| 2026-04-29 07:29 | 41.72194 | 13.35924 | 36002 ft | 452 kts | 327° |
| 2026-04-29 07:29 | 41.74970 | 13.33940 | 36047 ft | 456 kts | 334° |
| 2026-04-29 07:29 | 41.77904 | 13.32300 | 36369 ft | 458 kts | 336° |
| 2026-04-29 07:30 | 41.80862 | 13.30668 | 36148 ft | 461 kts | 336° |
| 2026-04-29 07:30 | 41.86749 | 13.27407 | 36094 ft | 457 kts | 335° |
| 2026-04-29 07:31 | 41.95499 | 13.22544 | 35979 ft | 452 kts | 335° |
| 2026-04-29 07:31 | 41.98403 | 13.20926 | 36084 ft | 454 kts | 335° |
| 2026-04-29 07:31 | 42.01348 | 13.19283 | 36106 ft | 457 kts | 335° |
| 2026-04-29 07:32 | 42.07229 | 13.15996 | 36111 ft | 458 kts | 335° |
| 2026-04-29 07:32 | 42.13065 | 13.12729 | 36107 ft | 457 kts | 335° |
| 2026-04-29 07:33 | 42.16029 | 13.11066 | 36245 ft | 459 kts | 335° |
| 2026-04-29 07:33 | 42.18933 | 13.09435 | 36155 ft | 456 kts | 335° |
| 2026-04-29 07:33 | 42.24773 | 13.06151 | 36108 ft | 454 kts | 335° |
| 2026-04-29 07:34 | 42.30590 | 13.02872 | 36113 ft | 454 kts | 335° |
| 2026-04-29 07:34 | 42.33466 | 13.01249 | 35957 ft | 452 kts | 335° |
| 2026-04-29 07:34 | 42.36370 | 12.99608 | 36095 ft | 452 kts | 335° |
| 2026-04-29 07:35 | 42.39278 | 12.97963 | 36426 ft | 455 kts | 335° |
| 2026-04-29 07:35 | 42.42222 | 12.96295 | 36192 ft | 459 kts | 335° |
| 2026-04-29 07:35 | 42.48080 | 12.92974 | 36132 ft | 454 kts | 335° |
| 2026-04-29 07:36 | 42.53857 | 12.89692 | 36113 ft | 453 kts | 335° |
| 2026-04-29 07:36 | 42.59657 | 12.86389 | 36103 ft | 453 kts | 335° |
| 2026-04-29 07:37 | 42.65456 | 12.83080 | 36094 ft | 453 kts | 335° |
| 2026-04-29 07:37 | 42.71256 | 12.79764 | 36085 ft | 453 kts | 335° |
| 2026-04-29 07:38 | 42.77084 | 12.76425 | 36081 ft | 453 kts | 335° |
| 2026-04-29 07:38 | 42.82879 | 12.73098 | 36081 ft | 453 kts | 335° |
| 2026-04-29 07:39 | 42.88680 | 12.69761 | 36084 ft | 453 kts | 335° |
| 2026-04-29 07:39 | 42.94443 | 12.66439 | 36084 ft | 453 kts | 335° |
| 2026-04-29 07:40 | 43.00244 | 12.63088 | 36080 ft | 453 kts | 334° |
| 2026-04-29 07:40 | 43.06058 | 12.59722 | 36072 ft | 453 kts | 334° |
| 2026-04-29 07:41 | 43.11827 | 12.56376 | 36070 ft | 453 kts | 334° |
| 2026-04-29 07:41 | 43.17604 | 12.53018 | 36071 ft | 452 kts | 334° |
| 2026-04-29 07:42 | 43.23399 | 12.49643 | 36077 ft | 452 kts | 334° |
| 2026-04-29 07:42 | 43.29151 | 12.46286 | 36079 ft | 452 kts | 334° |
| 2026-04-29 07:43 | 43.34929 | 12.42906 | 36074 ft | 452 kts | 334° |
| 2026-04-29 07:43 | 43.40672 | 12.39540 | 36069 ft | 452 kts | 334° |
| 2026-04-29 07:44 | 43.46439 | 12.36153 | 36068 ft | 451 kts | 334° |
| 2026-04-29 07:44 | 43.52203 | 12.32761 | 36067 ft | 451 kts | 333° |
| 2026-04-29 07:45 | 43.57976 | 12.29357 | 36071 ft | 450 kts | 334° |
| 2026-04-29 07:45 | 43.63696 | 12.25976 | 36075 ft | 450 kts | 333° |
| 2026-04-29 07:46 | 43.69479 | 12.22551 | 36077 ft | 450 kts | 333° |
| 2026-04-29 07:46 | 43.75191 | 12.19161 | 36084 ft | 450 kts | 334° |
| 2026-04-29 07:47 | 43.80934 | 12.15746 | 36079 ft | 450 kts | 333° |
| 2026-04-29 07:47 | 43.86696 | 12.12312 | 36075 ft | 450 kts | 333° |
| 2026-04-29 07:48 | 43.92410 | 12.08899 | 36070 ft | 450 kts | 333° |
| 2026-04-29 07:48 | 43.98173 | 12.05449 | 36069 ft | 450 kts | 333° |
| 2026-04-29 07:49 | 44.03929 | 12.01997 | 36062 ft | 450 kts | 333° |
| 2026-04-29 07:49 | 44.09653 | 11.98557 | 36060 ft | 449 kts | 333° |
| 2026-04-29 07:50 | 44.15366 | 11.95115 | 36060 ft | 449 kts | 333° |
| 2026-04-29 07:50 | 44.18223 | 11.93392 | 35884 ft | 447 kts | 333° |
| 2026-04-29 07:50 | 44.21085 | 11.91664 | 36023 ft | 447 kts | 333° |
| 2026-04-29 07:51 | 44.26809 | 11.88200 | 36057 ft | 451 kts | 333° |
| 2026-04-29 07:51 | 44.32554 | 11.84718 | 36053 ft | 451 kts | 333° |
| 2026-04-29 07:52 | 44.38276 | 11.81241 | 36056 ft | 450 kts | 333° |
| 2026-04-29 07:52 | 44.43988 | 11.77764 | 36055 ft | 450 kts | 333° |
| 2026-04-29 07:53 | 44.49737 | 11.74256 | 36052 ft | 449 kts | 333° |
| 2026-04-29 07:53 | 44.55431 | 11.70774 | 36053 ft | 449 kts | 333° |
| 2026-04-29 07:54 | 44.61151 | 11.67270 | 36050 ft | 449 kts | 333° |
| 2026-04-29 07:54 | 44.66859 | 11.63765 | 36050 ft | 448 kts | 333° |
| 2026-04-29 07:55 | 44.72555 | 11.60260 | 36044 ft | 448 kts | 333° |
| 2026-04-29 07:55 | 44.78248 | 11.56749 | 36045 ft | 448 kts | 333° |
| 2026-04-29 07:56 | 44.83937 | 11.53233 | 36046 ft | 448 kts | 333° |
| 2026-04-29 07:56 | 44.89612 | 11.49717 | 36053 ft | 447 kts | 333° |
| 2026-04-29 07:57 | 44.95303 | 11.46185 | 36052 ft | 447 kts | 333° |
| 2026-04-29 07:57 | 45.00991 | 11.42646 | 36054 ft | 447 kts | 333° |
| 2026-04-29 07:58 | 45.06680 | 11.39099 | 36053 ft | 447 kts | 333° |
| 2026-04-29 07:58 | 45.12373 | 11.35542 | 36054 ft | 447 kts | 333° |
| 2026-04-29 07:59 | 45.18048 | 11.31988 | 36067 ft | 447 kts | 332° |
| 2026-04-29 07:59 | 45.23731 | 11.28421 | 36066 ft | 446 kts | 332° |
| 2026-04-29 08:00 | 45.29364 | 11.24879 | 36073 ft | 445 kts | 332° |
| 2026-04-29 08:00 | 45.35009 | 11.21320 | 36077 ft | 445 kts | 332° |
| 2026-04-29 08:01 | 45.40667 | 11.17747 | 36080 ft | 444 kts | 332° |
| 2026-04-29 08:01 | 45.46283 | 11.14190 | 36081 ft | 444 kts | 332° |
| 2026-04-29 08:02 | 45.51937 | 11.10603 | 36086 ft | 444 kts | 332° |
| 2026-04-29 08:02 | 45.57570 | 11.07021 | 36100 ft | 444 kts | 332° |
| 2026-04-29 08:03 | 45.63157 | 11.03383 | 36094 ft | 442 kts | 328° |
| 2026-04-29 08:03 | 45.68139 | 10.98378 | 36096 ft | 437 kts | 318° |
| 2026-04-29 08:04 | 45.72859 | 10.92899 | 36102 ft | 437 kts | 318° |
| 2026-04-29 08:04 | 45.77550 | 10.87448 | 36104 ft | 437 kts | 318° |
| 2026-04-29 08:05 | 45.82256 | 10.81967 | 36107 ft | 436 kts | 318° |
| 2026-04-29 08:05 | 45.86951 | 10.76489 | 36112 ft | 435 kts | 318° |
| 2026-04-29 08:06 | 45.91630 | 10.71016 | 36111 ft | 435 kts | 318° |
| 2026-04-29 08:06 | 45.96293 | 10.65550 | 36105 ft | 435 kts | 318° |
| 2026-04-29 08:07 | 46.00969 | 10.60057 | 36108 ft | 435 kts | 318° |
| 2026-04-29 08:07 | 46.05647 | 10.54549 | 36115 ft | 436 kts | 318° |
| 2026-04-29 08:08 | 46.10329 | 10.49024 | 36118 ft | 436 kts | 318° |
| 2026-04-29 08:08 | 46.14991 | 10.43512 | 36130 ft | 435 kts | 318° |
| 2026-04-29 08:09 | 46.19642 | 10.38000 | 36138 ft | 435 kts | 318° |
| 2026-04-29 08:09 | 46.24313 | 10.32450 | 36140 ft | 435 kts | 317° |
| 2026-04-29 08:10 | 46.28955 | 10.26923 | 36146 ft | 435 kts | 317° |
| 2026-04-29 08:10 | 46.33609 | 10.21369 | 36017 ft | 435 kts | 317° |
| 2026-04-29 08:11 | 46.35934 | 10.18591 | 35539 ft | 429 kts | 317° |
| 2026-04-29 08:11 | 46.38202 | 10.15880 | 35000 ft | 424 kts | 317° |
| 2026-04-29 08:11 | 46.40446 | 10.13193 | 34402 ft | 419 kts | 317° |
| 2026-04-29 08:11 | 46.42677 | 10.10517 | 33902 ft | 414 kts | 317° |
| 2026-04-29 08:12 | 46.44884 | 10.07862 | 33351 ft | 415 kts | 317° |
| 2026-04-29 08:12 | 46.46969 | 10.04998 | 32817 ft | 414 kts | 310° |
| 2026-04-29 08:12 | 46.48745 | 10.01715 | 32262 ft | 412 kts | 302° |
| 2026-04-29 08:12 | 46.50204 | 9.98141 | 31693 ft | 409 kts | 298° |
| 2026-04-29 08:13 | 46.51546 | 9.94603 | 31184 ft | 405 kts | 298° |
| 2026-04-29 08:13 | 46.52913 | 9.91005 | 30640 ft | 401 kts | 298° |
| 2026-04-29 08:13 | 46.54248 | 9.87487 | 30112 ft | 398 kts | 298° |
| 2026-04-29 08:13 | 46.55569 | 9.84002 | 29583 ft | 395 kts | 298° |
| 2026-04-29 08:14 | 46.56871 | 9.80561 | 29069 ft | 393 kts | 298° |
| 2026-04-29 08:14 | 46.58190 | 9.77073 | 28542 ft | 390 kts | 298° |
| 2026-04-29 08:14 | 46.59483 | 9.73651 | 28025 ft | 388 kts | 298° |
| 2026-04-29 08:14 | 46.60766 | 9.70249 | 27522 ft | 384 kts | 298° |
| 2026-04-29 08:15 | 46.62044 | 9.66855 | 26975 ft | 381 kts | 298° |
| 2026-04-29 08:15 | 46.63306 | 9.63499 | 26466 ft | 379 kts | 298° |
| 2026-04-29 08:15 | 46.64556 | 9.60171 | 25968 ft | 377 kts | 298° |
| 2026-04-29 08:15 | 46.65815 | 9.56811 | 25455 ft | 375 kts | 298° |
| 2026-04-29 08:16 | 46.67046 | 9.53528 | 24961 ft | 373 kts | 298° |
| 2026-04-29 08:16 | 46.68280 | 9.50233 | 24464 ft | 370 kts | 298° |
| 2026-04-29 08:16 | 46.69505 | 9.46956 | 23977 ft | 368 kts | 298° |
| 2026-04-29 08:16 | 46.70723 | 9.43696 | 23485 ft | 365 kts | 298° |
| 2026-04-29 08:17 | 46.71932 | 9.40456 | 23007 ft | 363 kts | 298° |
| 2026-04-29 08:17 | 46.73127 | 9.37248 | 22535 ft | 360 kts | 298° |
| 2026-04-29 08:17 | 46.74301 | 9.34093 | 22070 ft | 359 kts | 298° |
| 2026-04-29 08:17 | 46.75495 | 9.30880 | 21600 ft | 357 kts | 298° |
| 2026-04-29 08:18 | 46.76660 | 9.27742 | 21132 ft | 355 kts | 298° |
| 2026-04-29 08:18 | 46.77839 | 9.24563 | 20657 ft | 354 kts | 298° |
| 2026-04-29 08:18 | 46.79002 | 9.21426 | 20189 ft | 351 kts | 298° |
| 2026-04-29 08:18 | 46.80149 | 9.18324 | 19730 ft | 350 kts | 298° |
| 2026-04-29 08:19 | 46.81300 | 9.15209 | 19265 ft | 348 kts | 298° |
| 2026-04-29 08:19 | 46.82442 | 9.12115 | 18807 ft | 346 kts | 298° |
| 2026-04-29 08:19 | 46.83577 | 9.09039 | 18344 ft | 343 kts | 298° |
| 2026-04-29 08:19 | 46.84686 | 9.06026 | 17898 ft | 339 kts | 298° |
| 2026-04-29 08:20 | 46.85805 | 9.02985 | 17437 ft | 335 kts | 298° |
| 2026-04-29 08:20 | 46.86881 | 9.00057 | 16996 ft | 330 kts | 298° |
| 2026-04-29 08:20 | 46.87968 | 8.97096 | 16549 ft | 325 kts | 298° |
| 2026-04-29 08:20 | 46.89017 | 8.94234 | 16132 ft | 321 kts | 298° |
| 2026-04-29 08:21 | 46.90066 | 8.91369 | 15695 ft | 316 kts | 298° |
| 2026-04-29 08:21 | 46.91087 | 8.88580 | 15285 ft | 311 kts | 298° |
| 2026-04-29 08:21 | 46.92086 | 8.85846 | 14885 ft | 305 kts | 298° |
| 2026-04-29 08:21 | 46.93075 | 8.83138 | 14495 ft | 300 kts | 298° |
| 2026-04-29 08:22 | 46.94054 | 8.80455 | 14121 ft | 296 kts | 298° |
| 2026-04-29 08:22 | 46.95043 | 8.77847 | 13728 ft | 292 kts | 303° |
| 2026-04-29 08:22 | 46.96436 | 8.75738 | 13347 ft | 290 kts | 324° |
| 2026-04-29 08:22 | 46.98208 | 8.74378 | 12932 ft | 290 kts | 334° |
| 2026-04-29 08:23 | 47.00024 | 8.73154 | 12546 ft | 286 kts | 333° |
| 2026-04-29 08:23 | 47.01814 | 8.71935 | 12188 ft | 282 kts | 334° |
| 2026-04-29 08:23 | 47.03608 | 8.70712 | 11810 ft | 280 kts | 334° |
| 2026-04-29 08:23 | 47.05339 | 8.69530 | 11450 ft | 277 kts | 334° |
| 2026-04-29 08:24 | 47.07095 | 8.68332 | 11051 ft | 276 kts | 334° |
| 2026-04-29 08:24 | 47.08810 | 8.67159 | 10701 ft | 273 kts | 334° |
| 2026-04-29 08:24 | 47.10529 | 8.65984 | 10338 ft | 270 kts | 335° |
| 2026-04-29 08:24 | 47.12235 | 8.64817 | 9983 ft | 267 kts | 335° |
| 2026-04-29 08:25 | 47.13893 | 8.63681 | 9634 ft | 265 kts | 335° |
| 2026-04-29 08:25 | 47.15537 | 8.62554 | 9252 ft | 258 kts | 335° |
| 2026-04-29 08:25 | 47.17149 | 8.61448 | 8948 ft | 249 kts | 335° |
| 2026-04-29 08:25 | 47.18684 | 8.60394 | 8442 ft | 249 kts | 335° |
| 2026-04-29 08:26 | 47.20232 | 8.59332 | 8192 ft | 238 kts | 335° |
| 2026-04-29 08:26 | 47.21681 | 8.58256 | 7858 ft | 233 kts | 326° |
| 2026-04-29 08:26 | 47.22784 | 8.56566 | 7510 ft | 231 kts | 300° |
| 2026-04-29 08:26 | 47.23245 | 8.54316 | 7076 ft | 232 kts | 268° |
| 2026-04-29 08:27 | 47.22691 | 8.52206 | 6694 ft | 223 kts | 230° |
| 2026-04-29 08:27 | 47.21406 | 8.50997 | 6101 ft | 222 kts | 193° |
| 2026-04-29 08:27 | 47.19932 | 8.51063 | 5666 ft | 213 kts | 160° |
| 2026-04-29 08:27 | 47.18670 | 8.52167 | 5146 ft | 209 kts | 142° |
| 2026-04-29 08:28 | 47.17442 | 8.52934 | 5259 ft | 182 kts | 170° |
| 2026-04-29 08:28 | 47.16203 | 8.52708 | 5049 ft | 179 kts | 200° |
| 2026-04-29 08:28 | 47.15179 | 8.51763 | 4959 ft | 175 kts | 216° |
| 2026-04-29 08:28 | 47.14209 | 8.50639 | 4801 ft | 179 kts | 217° |
| 2026-04-29 08:29 | 47.13236 | 8.49527 | 4692 ft | 174 kts | 217° |
| 2026-04-29 08:29 | 47.12274 | 8.48433 | 4550 ft | 174 kts | 217° |
| 2026-04-29 08:29 | 47.11362 | 8.47394 | 4417 ft | 157 kts | 216° |
| 2026-04-29 08:29 | 47.10529 | 8.46446 | 4409 ft | 151 kts | 216° |
| 2026-04-29 08:30 | 47.09712 | 8.45519 | 4401 ft | 146 kts | 216° |
| 2026-04-29 08:30 | 47.08107 | 8.43702 | 3901 ft | 144 kts | 216° |
| 2026-04-29 08:30 | 47.07313 | 8.42816 | 3549 ft | 142 kts | 216° |
| 2026-04-29 08:31 | 47.06496 | 8.42020 | 3194 ft | 140 kts | 206° |
| 2026-04-29 08:31 | 47.05582 | 8.41636 | 2837 ft | 137 kts | 185° |
| 2026-04-29 08:31 | 47.04666 | 8.41833 | 2479 ft | 133 kts | 157° |
| 2026-04-29 08:31 | 47.03797 | 8.42241 | 2266 ft | 131 kts | 161° |
| 2026-04-29 08:32 | 47.03001 | 8.42898 | 2264 ft | 130 kts | 140° |
| 2026-04-29 08:32 | 47.02325 | 8.43796 | 2273 ft | 131 kts | 133° |
| 2026-04-29 08:32 | 47.01859 | 8.44917 | 2271 ft | 130 kts | 112° |
| 2026-04-29 08:32 | 47.01481 | 8.46134 | 2287 ft | 130 kts | 122° |
| 2026-04-29 08:33 | 47.00819 | 8.47007 | 2363 ft | 134 kts | 155° |
| 2026-04-29 08:33 | 46.99894 | 8.47068 | 2306 ft | 136 kts | 199° |
| 2026-04-29 08:33 | 46.99175 | 8.46218 | 2146 ft | 137 kts | 239° |
| 2026-04-29 08:33 | 46.98928 | 8.44905 | 1953 ft | 133 kts | 261° |
| 2026-04-29 08:34 | 46.98701 | 8.43581 | 1825 ft | 134 kts | 249° |
| 2026-04-29 08:34 | 46.98309 | 8.42355 | 1670 ft | 133 kts | 244° |
| 2026-04-29 08:34 | 46.97905 | 8.41118 | 1525 ft | 133 kts | 245° |
| 2026-04-29 08:34 | 46.97520 | 8.39946 | 1460 ft | 116 kts | 245° |
| 2026-04-29 08:35 | 46.97282 | 8.39225 | 1481 ft | 21 kts | 245° |
| 2026-04-29 08:35 | 46.97226 | 8.39031 | 1482 ft | 18 kts | 256° |
| 2026-04-29 08:35 | 46.97222 | 8.39066 | 1482 ft | 23 kts | 62° |
| 2026-04-29 08:35 | 46.97311 | 8.39310 | 1479 ft | 29 kts | 65° |
| 2026-04-29 08:36 | 46.97408 | 8.39598 | 1470 ft | 34 kts | 64° |
| 2026-04-29 08:36 | 46.97519 | 8.39930 | 1460 ft | 38 kts | 65° |
| 2026-04-29 08:36 | 46.97628 | 8.40263 | 1456 ft | 31 kts | 65° |
| 2026-04-29 08:36 | 46.97691 | 8.40454 | 1453 ft | 11 kts | 66° |
| 2026-04-29 08:37 | 46.97641 | 8.40538 | 1453 ft | 13 kts | 155° |
| 2026-04-29 08:37 | 46.97556 | 8.40601 | 1454 ft | 13 kts | 154° |
| 2026-04-29 08:37 | 46.97469 | 8.40667 | 1454 ft | 15 kts | 153° |
| 2026-04-29 08:37 | 46.97405 | 8.40618 | 1456 ft | 15 kts | 240° |
| 2026-04-29 08:38 | 46.97346 | 8.40473 | 1457 ft | 17 kts | 240° |
| 2026-04-29 08:38 | 46.97285 | 8.40317 | 1462 ft | 17 kts | 240° |
| 2026-04-29 08:38 | 46.97237 | 8.40199 | 1464 ft | 11 kts | 240° |
| 2026-04-29 08:38 | 46.97190 | 8.40136 | 1464 ft | 8 kts | 189° |
| 2026-04-29 08:39 | 46.97166 | 8.40111 | 1465 ft | 0 kts | 307° |
| 2026-04-29 08:39 | 46.97169 | 8.40109 | 1465 ft | 0 kts | 332° |